Time;durP1;ratioP1;P1;durP2;ratioP2;P2;SDS_P1;SDS_P2;PMS_P1;PMS_P2;Temp;Humidity;BMP_temperature;BMP_pressure;BME280_temperature;BME280_humidity;BME280_pressure;Samples;Min_cycle;Max_cycle;Signal;HPM_P1;HPM_P2
2021/05/10 00:00:18;;;;;;;30.90;13.23;;;21.70;45.50;;;;;;5110427;28;20070;-40
2021/05/10 00:02:44;;;;;;;26.58;12.45;;;21.60;45.40;;;;;;5111788;27;20056;-40
2021/05/10 00:05:11;;;;;;;29.95;13.60;;;21.70;45.50;;;;;;5110448;27;20051;-41
2021/05/10 00:07:38;;;;;;;29.40;12.40;;;21.60;45.40;;;;;;5111829;27;20054;-41
2021/05/10 00:10:07;;;;;;;29.30;14.00;;;21.70;45.50;;;;;;5111374;28;20384;-40
2021/05/10 00:12:33;;;;;;;31.52;13.15;;;21.60;45.40;;;;;;5111345;28;20044;-41
2021/05/10 00:15:00;;;;;;;29.90;13.13;;;21.60;45.40;;;;;;5099988;28;20120;-41
2021/05/10 00:17:27;;;;;;;29.05;13.70;;;21.60;45.40;;;;;;5111388;28;20441;-40
2021/05/10 00:19:53;;;;;;;31.02;12.88;;;21.70;45.50;;;;;;5110515;28;20176;-39
2021/05/10 00:22:20;;;;;;;29.75;13.23;;;21.60;45.40;;;;;;5111287;28;20052;-40
2021/05/10 00:24:47;;;;;;;26.73;12.95;;;21.70;45.50;;;;;;5110310;28;20046;-39
2021/05/10 00:27:14;;;;;;;28.73;13.40;;;21.60;45.40;;;;;;5110361;28;20051;-39
2021/05/10 00:29:40;;;;;;;28.33;12.68;;;21.60;45.40;;;;;;5111649;28;20043;-40
2021/05/10 00:32:07;;;;;;;28.08;13.00;;;21.60;45.40;;;;;;5110119;28;20547;-42
2021/05/10 00:34:34;;;;;;;28.95;13.27;;;21.60;45.40;;;;;;5111170;28;20040;-40
2021/05/10 00:37:00;;;;;;;32.13;13.15;;;21.70;45.50;;;;;;5110884;28;20047;-39
2021/05/10 00:39:27;;;;;;;27.70;13.18;;;21.60;45.40;;;;;;5110582;27;20051;-42
2021/05/10 00:41:56;;;;;;;27.40;12.57;;;21.70;45.50;;;;;;5111662;28;20391;-39
2021/05/10 00:44:23;;;;;;;27.50;12.32;;;21.60;45.40;;;;;;5110222;28;20448;-40
2021/05/10 00:46:54;;;;;;;29.60;13.45;;;21.60;45.40;;;;;;5108867;28;20063;-40
2021/05/10 00:49:22;;;;;;;30.52;13.23;;;21.60;45.40;;;;;;5111544;28;20126;-41
2021/05/10 00:51:49;;;;;;;27.63;12.77;;;21.60;45.40;;;;;;5099882;28;20556;-40
2021/05/10 00:54:16;;;;;;;29.65;12.98;;;21.60;45.40;;;;;;5100140;28;20047;-41
2021/05/10 00:56:43;;;;;;;28.73;13.00;;;21.60;45.40;;;;;;5111118;28;20071;-40
2021/05/10 00:59:10;;;;;;;26.38;12.40;;;21.60;45.40;;;;;;5112449;28;20039;-40
2021/05/10 01:01:36;;;;;;;29.70;11.88;;;21.60;45.50;;;;;;5115346;28;20044;-40
2021/05/10 01:04:04;;;;;;;30.20;12.50;;;21.60;45.40;;;;;;5114576;28;20043;-39
2021/05/10 01:06:32;;;;;;;28.38;12.52;;;21.60;45.40;;;;;;5114146;27;20047;-41
2021/05/10 01:08:58;;;;;;;26.50;12.18;;;21.60;45.50;;;;;;5115704;27;20048;-40
2021/05/10 01:11:25;;;;;;;26.88;12.32;;;21.60;45.40;;;;;;5113779;28;20043;-40
2021/05/10 01:13:52;;;;;;;27.02;12.63;;;21.60;45.40;;;;;;5113568;28;20519;-39
2021/05/10 01:16:18;;;;;;;26.90;12.48;;;21.70;45.50;;;;;;5114513;28;20079;-40
2021/05/10 01:18:46;;;;;;;32.08;12.32;;;21.60;45.40;;;;;;5113280;27;20044;-40
2021/05/10 01:21:13;;;;;;;26.77;12.73;;;21.70;45.50;;;;;;5114779;28;20477;-39
2021/05/10 01:23:41;;;;;;;29.77;12.18;;;21.60;45.40;;;;;;5114344;28;20075;-41
2021/05/10 01:26:08;;;;;;;31.67;12.95;;;21.70;45.50;;;;;;5113892;28;20104;-42
2021/05/10 01:28:34;;;;;;;27.48;12.65;;;21.60;45.40;;;;;;5115336;27;20097;-40
2021/05/10 01:31:02;;;;;;;26.60;11.45;;;21.60;45.40;;;;;;5116171;28;20058;-45
2021/05/10 01:33:29;;;;;;;25.42;12.27;;;21.60;45.40;;;;;;5116465;27;20058;-46
2021/05/10 01:35:55;;;;;;;24.60;11.02;;;21.60;45.40;;;;;;5115690;28;20047;-47
2021/05/10 01:38:22;;;;;;;28.17;12.30;;;21.60;45.40;;;;;;5116751;27;20123;-48
2021/05/10 01:40:49;;;;;;;28.23;12.48;;;21.60;45.40;;;;;;5115789;28;20117;-45
2021/05/10 01:43:17;;;;;;;26.15;12.45;;;21.60;45.40;;;;;;5114945;28;20101;-41
2021/05/10 01:45:44;;;;;;;26.25;12.20;;;21.60;45.40;;;;;;5115664;28;20051;-45
2021/05/10 01:48:13;;;;;;;25.60;11.70;;;21.60;45.40;;;;;;5115708;28;20169;-45
2021/05/10 01:50:43;;;;;;;27.25;11.27;;;21.60;45.40;;;;;;5116435;27;20039;-44
2021/05/10 01:53:10;;;;;;;24.75;11.75;;;21.60;45.40;;;;;;5097098;28;20104;-41
2021/05/10 01:55:37;;;;;;;24.75;11.35;;;21.60;45.40;;;;;;5116263;27;20040;-42
2021/05/10 01:58:05;;;;;;;24.70;11.32;;;21.60;45.50;;;;;;5115202;28;20044;-40
2021/05/10 02:00:34;;;;;;;26.63;12.25;;;21.60;45.40;;;;;;5115458;27;20055;-43
2021/05/10 02:03:02;;;;;;;22.10;10.85;;;21.70;45.60;;;;;;5114919;28;20126;-45
2021/05/10 02:05:29;;;;;;;24.52;11.25;;;21.60;45.40;;;;;;5117026;27;20044;-41
2021/05/10 02:07:59;;;;;;;28.17;11.88;;;21.60;45.50;;;;;;5114683;28;20070;-47
2021/05/10 02:10:32;;;;;;;27.92;10.95;;;21.60;45.50;;;;;;5116257;27;20135;-44
2021/05/10 02:12:59;;;;;;;27.15;12.23;;;21.60;45.50;;;;;;5114780;28;20089;-45
2021/05/10 02:15:31;;;;;;;31.25;12.23;;;21.60;45.50;;;;;;5115009;28;20047;-43
2021/05/10 02:17:59;;;;;;;27.83;11.63;;;21.60;45.50;;;;;;5114704;28;20044;-46
2021/05/10 02:20:27;;;;;;;27.88;12.15;;;21.60;45.40;;;;;;5114588;28;20047;-42
2021/05/10 02:22:56;;;;;;;24.73;11.93;;;21.70;45.60;;;;;;5117659;27;20079;-42
2021/05/10 02:25:31;;;;;;;22.30;11.35;;;21.60;45.50;;;;;;5114876;28;21417;-45
2021/05/10 02:27:58;;;;;;;25.63;11.30;;;21.60;45.50;;;;;;5114398;27;20414;-43
2021/05/10 02:30:27;;;;;;;23.77;11.48;;;21.60;45.50;;;;;;5113522;28;20598;-41
2021/05/10 02:32:55;;;;;;;22.10;11.50;;;21.70;45.60;;;;;;5112304;28;20044;-41
2021/05/10 02:35:22;;;;;;;28.65;11.57;;;21.60;45.50;;;;;;5113502;28;20043;-41
2021/05/10 02:37:50;;;;;;;25.20;12.27;;;21.60;45.50;;;;;;5112944;28;20148;-41
2021/05/10 02:40:18;;;;;;;26.38;11.32;;;21.60;45.50;;;;;;5112344;27;20040;-41
2021/05/10 02:42:45;;;;;;;26.42;11.52;;;21.60;45.50;;;;;;5113564;28;20075;-41
2021/05/10 02:45:13;;;;;;;23.65;10.52;;;21.60;45.50;;;;;;5112499;27;20043;-42
2021/05/10 02:47:41;;;;;;;23.30;10.93;;;21.60;46.10;;;;;;5113123;27;20476;-40
2021/05/10 02:50:16;;;;;;;26.15;11.77;;;21.60;45.50;;;;;;5112875;28;20100;-42
2021/05/10 02:52:42;;;;;;;27.02;11.50;;;21.60;45.40;;;;;;5112420;27;20475;-43
2021/05/10 02:55:09;;;;;;;24.33;11.52;;;21.60;45.50;;;;;;5112974;28;20040;-41
2021/05/10 02:57:36;;;;;;;25.90;11.98;;;21.60;45.50;;;;;;5112404;28;20052;-45
2021/05/10 03:00:14;;;;;;;23.88;10.50;;;21.60;45.50;;;;;;5111956;28;21280;-41
2021/05/10 03:02:41;;;;;;;23.38;10.75;;;21.60;45.50;;;;;;5112798;28;20044;-41
2021/05/10 03:05:10;;;;;;;23.67;10.95;;;21.60;45.50;;;;;;5112106;28;20054;-40
2021/05/10 03:07:37;;;;;;;25.73;11.77;;;21.60;45.50;;;;;;5112798;27;20051;-43
2021/05/10 03:10:07;;;;;;;24.80;11.48;;;21.60;45.50;;;;;;5113052;28;20052;-41
2021/05/10 03:12:34;;;;;;;24.30;10.95;;;21.60;45.50;;;;;;5111433;27;20051;-42
2021/05/10 03:15:01;;;;;;;21.45;10.27;;;21.60;45.50;;;;;;5111273;27;20055;-42
2021/05/10 03:17:28;;;;;;;21.67;10.48;;;21.60;45.50;;;;;;5112603;28;20449;-41
2021/05/10 03:19:54;;;;;;;22.27;10.15;;;21.60;46.10;;;;;;5112032;27;20086;-40
2021/05/10 03:22:21;;;;;;;24.73;10.98;;;21.60;45.50;;;;;;5112620;27;20514;-40
2021/05/10 03:24:49;;;;;;;23.65;11.18;;;21.60;45.50;;;;;;5100355;28;20557;-41
2021/05/10 03:27:16;;;;;;;25.48;11.50;;;21.60;45.50;;;;;;5099116;28;20047;-41
2021/05/10 03:29:42;;;;;;;27.55;11.48;;;21.60;45.50;;;;;;5112323;28;20055;-40
2021/05/10 03:32:09;;;;;;;23.25;10.55;;;21.60;45.50;;;;;;5111488;28;20047;-41
2021/05/10 03:34:36;;;;;;;22.80;11.02;;;21.60;45.50;;;;;;5111521;28;20063;-43
2021/05/10 03:37:03;;;;;;;22.50;10.65;;;21.60;45.50;;;;;;5112298;28;20097;-43
2021/05/10 03:39:29;;;;;;;24.63;11.15;;;21.60;45.50;;;;;;5111203;28;20500;-41
2021/05/10 03:41:56;;;;;;;22.40;10.85;;;21.70;45.60;;;;;;5102266;28;20044;-42
2021/05/10 03:44:23;;;;;;;17.67;9.30;;;21.60;45.50;;;;;;5111717;28;20044;-40
2021/05/10 03:46:49;;;;;;;21.02;10.38;;;21.60;45.50;;;;;;5111206;27;20054;-42
2021/05/10 03:49:16;;;;;;;21.73;11.13;;;21.60;45.60;;;;;;5112067;28;20047;-42
2021/05/10 03:51:43;;;;;;;23.13;10.10;;;21.60;45.50;;;;;;5112086;27;20036;-40
2021/05/10 03:54:09;;;;;;;21.15;10.10;;;21.60;45.50;;;;;;5111165;28;20494;-41
2021/05/10 03:56:36;;;;;;;22.92;10.05;;;21.60;45.50;;;;;;5111704;28;20496;-42
2021/05/10 03:59:03;;;;;;;21.15;10.02;;;21.60;45.50;;;;;;5100018;28;20051;-46
2021/05/10 04:01:29;;;;;;;24.98;10.55;;;21.60;45.50;;;;;;5112328;28;20050;-41
2021/05/10 04:07:11;;;;;;;22.10;10.07;;;21.60;45.50;;;;;;5110636;27;20120;-41
2021/05/10 04:09:42;;;;;;;21.50;10.10;;;21.60;45.50;;;;;;5110468;28;20047;-41
2021/05/10 04:14:59;;;;;;;23.08;10.52;;;21.60;45.50;;;;;;5099894;28;20074;-43
2021/05/10 04:17:26;;;;;;;20.95;10.32;;;21.60;45.50;;;;;;5111097;28;20502;-41
2021/05/10 04:19:53;;;;;;;20.45;10.05;;;21.60;45.50;;;;;;5111172;28;20085;-40
2021/05/10 04:22:20;;;;;;;20.63;9.98;;;21.60;45.50;;;;;;5110717;28;20701;-42
2021/05/10 04:24:48;;;;;;;19.27;9.82;;;21.60;45.50;;;;;;5111767;28;20111;-40
2021/05/10 04:27:15;;;;;;;20.95;9.98;;;21.60;45.50;;;;;;5110774;28;20059;-40
2021/05/10 04:29:41;;;;;;;23.48;10.48;;;21.60;45.50;;;;;;5111002;27;20043;-40
2021/05/10 04:32:08;;;;;;;18.48;9.25;;;21.60;45.50;;;;;;5111646;28;20047;-40
2021/05/10 04:34:35;;;;;;;21.55;9.30;;;21.60;45.50;;;;;;5098063;28;20055;-40
2021/05/10 04:37:01;;;;;;;19.40;9.35;;;21.60;45.50;;;;;;5111070;28;20047;-41
2021/05/10 04:39:28;;;;;;;22.17;9.88;;;21.60;45.50;;;;;;5100055;28;20096;-41
2021/05/10 04:41:55;;;;;;;19.88;9.80;;;21.60;45.50;;;;;;5109537;28;20087;-41
2021/05/10 04:44:21;;;;;;;19.92;9.90;;;21.60;45.50;;;;;;5111180;28;20096;-41
2021/05/10 04:46:48;;;;;;;21.38;10.20;;;21.60;45.50;;;;;;5110162;28;20043;-48
2021/05/10 04:49:15;;;;;;;21.25;9.95;;;21.60;45.50;;;;;;5109707;28;20043;-45
2021/05/10 04:51:42;;;;;;;21.17;9.95;;;21.60;45.50;;;;;;5111084;28;20498;-45
2021/05/10 04:54:08;;;;;;;23.27;10.25;;;21.60;45.50;;;;;;5109937;28;20097;-43
2021/05/10 04:56:35;;;;;;;20.40;9.75;;;21.60;45.50;;;;;;5111425;28;20047;-44
2021/05/10 04:59:01;;;;;;;20.00;9.30;;;21.70;45.60;;;;;;5110903;28;20100;-44
2021/05/10 05:01:28;;;;;;;21.73;10.00;;;21.60;45.50;;;;;;5109712;28;20067;-44
2021/05/10 05:03:55;;;;;;;23.05;10.50;;;21.60;45.50;;;;;;5111705;28;20500;-47
2021/05/10 05:06:21;;;;;;;19.10;9.13;;;21.70;45.50;;;;;;5110324;28;20051;-41
2021/05/10 05:08:48;;;;;;;19.33;9.52;;;21.60;45.40;;;;;;5109682;28;20047;-45
2021/05/10 05:11:15;;;;;;;21.85;8.88;;;21.60;45.40;;;;;;5100884;28;20089;-41
2021/05/10 05:13:41;;;;;;;18.02;8.25;;;21.70;45.60;;;;;;5109234;28;20096;-40
2021/05/10 05:16:08;;;;;;;21.27;10.23;;;21.70;45.50;;;;;;5110818;28;20044;-41
2021/05/10 05:18:35;;;;;;;19.05;9.63;;;21.70;45.50;;;;;;5110862;28;20050;-41
2021/05/10 05:21:01;;;;;;;21.33;9.93;;;21.70;45.50;;;;;;5109724;28;20054;-40
2021/05/10 05:23:28;;;;;;;18.35;9.25;;;21.70;45.50;;;;;;5100515;28;20513;-42
2021/05/10 05:26:00;;;;;;;18.42;9.18;;;21.70;45.50;;;;;;5099139;28;20047;-41
2021/05/10 05:28:28;;;;;;;22.40;10.00;;;21.70;45.50;;;;;;5110366;28;20414;-41
2021/05/10 05:30:56;;;;;;;20.55;9.35;;;21.70;45.50;;;;;;5111033;28;20449;-41
2021/05/10 05:33:24;;;;;;;19.55;8.75;;;21.70;45.40;;;;;;5109273;28;20042;-40
2021/05/10 05:35:51;;;;;;;18.67;9.43;;;21.70;45.40;;;;;;5109518;28;20044;-43
2021/05/10 05:38:18;;;;;;;19.17;9.80;;;21.70;45.40;;;;;;5110645;28;20097;-42
2021/05/10 05:40:45;;;;;;;17.20;8.95;;;21.70;45.50;;;;;;5106885;28;20470;-44
2021/05/10 05:43:12;;;;;;;19.23;8.88;;;21.70;45.50;;;;;;5101300;28;20055;-40
2021/05/10 05:45:41;;;;;;;17.75;9.05;;;21.70;45.50;;;;;;5112403;28;20423;-43
2021/05/10 05:48:10;;;;;;;18.60;8.82;;;21.70;45.50;;;;;;5113331;27;20058;-44
2021/05/10 05:50:39;;;;;;;18.00;8.82;;;21.70;45.50;;;;;;5113733;27;20048;-45
2021/05/10 05:53:06;;;;;;;17.15;8.80;;;21.70;45.50;;;;;;5102810;28;20162;-41
2021/05/10 05:55:33;;;;;;;18.42;8.73;;;21.70;45.50;;;;;;5112382;28;20039;-41
2021/05/10 05:58:01;;;;;;;18.80;9.32;;;21.70;45.50;;;;;;5114358;27;20187;-41
2021/05/10 06:00:28;;;;;;;21.10;9.07;;;21.70;45.60;;;;;;5112868;27;20047;-41
2021/05/10 06:02:55;;;;;;;17.40;8.05;;;21.70;45.60;;;;;;5112776;27;20555;-42
2021/05/10 06:05:23;;;;;;;22.25;9.50;;;21.70;45.60;;;;;;5111069;28;20070;-41
2021/05/10 06:07:50;;;;;;;20.05;9.10;;;21.70;45.60;;;;;;5102260;28;20055;-41
2021/05/10 06:10:21;;;;;;;19.15;9.23;;;21.70;45.60;;;;;;5103053;28;20043;-41
2021/05/10 06:12:52;;;;;;;17.20;8.93;;;21.70;45.60;;;;;;5110974;28;20074;-40
2021/05/10 06:15:20;;;;;;;16.10;8.35;;;21.70;45.50;;;;;;5111163;27;20075;-43
2021/05/10 06:17:47;;;;;;;16.73;8.70;;;21.70;45.50;;;;;;5102794;27;20475;-44
2021/05/10 06:20:16;;;;;;;19.95;9.07;;;21.70;45.60;;;;;;5112435;28;20121;-41
2021/05/10 06:22:43;;;;;;;16.20;8.60;;;21.80;45.80;;;;;;5112300;28;20453;-40
2021/05/10 06:25:14;;;;;;;19.40;8.95;;;21.80;46.00;;;;;;5113586;28;20060;-42
2021/05/10 06:27:41;;;;;;;16.92;8.07;;;21.80;46.30;;;;;;5111719;28;20047;-42
2021/05/10 06:30:10;;;;;;;17.98;8.70;;;21.80;46.80;;;;;;5112641;28;20384;-42
2021/05/10 06:32:38;;;;;;;16.42;8.25;;;21.80;47.00;;;;;;5113279;28;20040;-40
2021/05/10 06:35:05;;;;;;;17.10;8.38;;;21.80;47.10;;;;;;5111318;27;20160;-41
2021/05/10 06:37:32;;;;;;;17.00;8.48;;;21.80;47.30;;;;;;5113206;27;20073;-41
2021/05/10 06:39:59;;;;;;;17.48;8.48;;;21.80;47.50;;;;;;5112711;28;20438;-40
2021/05/10 06:42:27;;;;;;;17.85;8.68;;;21.90;47.50;;;;;;5111391;27;20472;-41
2021/05/10 06:44:55;;;;;;;16.08;8.05;;;21.90;47.90;;;;;;5112941;28;20083;-41
2021/05/10 06:47:22;;;;;;;22.92;9.45;;;21.90;48.30;;;;;;5111154;28;20055;-40
2021/05/10 06:49:49;;;;;;;21.67;8.75;;;21.90;48.50;;;;;;5112048;28;20051;-40
2021/05/10 06:52:15;;;;;;;18.08;7.90;;;21.90;48.60;;;;;;5113290;28;20047;-40
2021/05/10 06:54:42;;;;;;;17.58;8.05;;;21.90;48.90;;;;;;5099881;28;20047;-40
2021/05/10 06:57:09;;;;;;;14.68;8.32;;;21.90;49.00;;;;;;5110437;28;20088;-41
2021/05/10 06:59:37;;;;;;;18.95;7.80;;;21.90;49.30;;;;;;5111447;28;20048;-40
2021/05/10 07:02:04;;;;;;;20.55;8.15;;;22.00;49.40;;;;;;5100812;28;20039;-41
2021/05/10 07:04:31;;;;;;;18.60;8.13;;;22.00;49.50;;;;;;5111920;27;20380;-41
2021/05/10 07:06:57;;;;;;;18.10;7.57;;;22.00;49.70;;;;;;5111223;28;20043;-41
2021/05/10 07:09:24;;;;;;;16.85;8.00;;;22.00;49.90;;;;;;5101011;28;20510;-41
2021/05/10 07:11:51;;;;;;;32.85;8.18;;;22.00;50.10;;;;;;5101360;28;20051;-45
2021/05/10 07:14:18;;;;;;;17.73;7.82;;;22.00;50.30;;;;;;5110780;27;20055;-40
2021/05/10 07:16:44;;;;;;;17.75;7.82;;;22.00;50.10;;;;;;5111960;27;20051;-40
2021/05/10 07:19:11;;;;;;;15.93;7.78;;;22.00;49.80;;;;;;5099784;28;20055;-41
2021/05/10 07:21:38;;;;;;;15.15;7.43;;;22.00;49.60;;;;;;5111330;27;20048;-40
2021/05/10 07:24:05;;;;;;;19.90;8.05;;;22.00;48.80;;;;;;5112118;28;20055;-40
2021/05/10 07:26:32;;;;;;;19.98;9.02;;;22.00;48.80;;;;;;5111330;28;20059;-40
2021/05/10 07:29:00;;;;;;;21.80;7.80;;;22.00;49.40;;;;;;5110256;28;20107;-44
2021/05/10 07:31:27;;;;;;;15.52;7.88;;;22.00;48.80;;;;;;5112472;28;20039;-43
2021/05/10 07:33:54;;;;;;;15.65;7.72;;;22.00;49.00;;;;;;5110078;28;20043;-41
2021/05/10 07:36:21;;;;;;;17.88;7.45;;;22.00;49.10;;;;;;5110482;28;20054;-42
2021/05/10 07:38:48;;;;;;;14.73;7.40;;;22.00;49.20;;;;;;5111483;28;20396;-41
2021/05/10 07:41:14;;;;;;;18.25;7.00;;;22.00;49.10;;;;;;5109769;28;20060;-44
2021/05/10 07:43:42;;;;;;;14.20;7.18;;;22.00;49.00;;;;;;5112133;27;20051;-41
2021/05/10 07:46:09;;;;;;;14.68;7.40;;;22.00;48.90;;;;;;5109761;28;20072;-42
2021/05/10 07:48:36;;;;;;;16.05;7.32;;;22.00;48.90;;;;;;5099180;28;20135;-40
2021/05/10 07:51:02;;;;;;;14.60;7.05;;;22.00;48.80;;;;;;5101471;27;20088;-40
2021/05/10 07:53:29;;;;;;;14.23;6.90;;;22.00;48.80;;;;;;5110689;28;20352;-40
2021/05/10 07:55:56;;;;;;;15.45;7.22;;;22.00;48.70;;;;;;5109921;28;20131;-41
2021/05/10 07:58:26;;;;;;;17.55;7.68;;;22.00;48.60;;;;;;5111177;27;20043;-40
2021/05/10 08:00:57;;;;;;;13.52;6.80;;;22.00;48.60;;;;;;5110702;27;20499;-40
2021/05/10 08:03:27;;;;;;;13.27;6.43;;;22.00;48.60;;;;;;5111746;27;20540;-41
2021/05/10 08:05:54;;;;;;;15.05;6.97;;;22.00;48.50;;;;;;5111009;28;20074;-41
2021/05/10 08:08:22;;;;;;;18.20;6.80;;;22.00;48.50;;;;;;5109528;27;20051;-43
2021/05/10 08:10:50;;;;;;;14.70;6.82;;;22.00;48.50;;;;;;5110930;28;20093;-42
2021/05/10 08:13:17;;;;;;;15.15;6.72;;;22.00;48.40;;;;;;5110371;27;20044;-42
2021/05/10 08:15:44;;;;;;;19.00;7.00;;;22.00;48.40;;;;;;5100015;28;20445;-43
2021/05/10 08:18:11;;;;;;;15.02;6.63;;;22.00;48.40;;;;;;5100875;28;20128;-42
2021/05/10 08:20:42;;;;;;;13.88;7.32;;;22.00;48.40;;;;;;5097273;28;20052;-44
2021/05/10 08:23:10;;;;;;;14.05;6.93;;;22.00;48.40;;;;;;5100843;28;20044;-46
2021/05/10 08:25:38;;;;;;;15.52;7.40;;;22.00;48.40;;;;;;5099808;28;20051;-43
2021/05/10 08:28:05;;;;;;;15.40;8.45;;;22.00;48.50;;;;;;5097474;28;20044;-42
2021/05/10 08:30:32;;;;;;;16.25;7.90;;;22.00;48.50;;;;;;5100554;28;20036;-43
2021/05/10 08:32:59;;;;;;;19.20;9.70;;;22.00;48.40;;;;;;5099196;28;20044;-45
2021/05/10 08:35:26;;;;;;;23.45;10.45;;;22.00;48.50;;;;;;5096201;28;20050;-43
2021/05/10 08:37:59;;;;;;;26.88;10.57;;;22.00;48.60;;;;;;5100636;28;20093;-47
2021/05/10 08:40:26;;;;;;;19.63;10.80;;;22.00;48.60;;;;;;5096538;28;20055;-46
2021/05/10 08:42:53;;;;;;;23.45;12.63;;;22.10;48.70;;;;;;5100149;28;20047;-41
2021/05/10 08:45:22;;;;;;;27.48;15.10;;;22.10;48.80;;;;;;5100178;28;20194;-46
2021/05/10 08:47:50;;;;;;;27.90;15.13;;;22.10;48.80;;;;;;5098258;28;20124;-42
2021/05/10 08:50:18;;;;;;;26.13;14.73;;;22.10;49.00;;;;;;5100135;28;20424;-44
2021/05/10 08:52:45;;;;;;;31.60;17.35;;;22.10;49.00;;;;;;5097848;28;20044;-44
2021/05/10 08:55:16;;;;;;;36.47;18.35;;;22.10;49.20;;;;;;5096202;28;20044;-46
2021/05/10 08:57:44;;;;;;;31.33;17.42;;;22.10;49.20;;;;;;5100494;28;20044;-47
2021/05/10 09:00:15;;;;;;;36.42;19.35;;;22.10;49.30;;;;;;5098124;28;20056;-46
2021/05/10 09:02:42;;;;;;;36.95;18.85;;;22.10;49.30;;;;;;5098262;28;20047;-42
2021/05/10 09:05:19;;;;;;;36.10;19.00;;;22.10;49.30;;;;;;5099036;28;20048;-43
2021/05/10 09:08:06;;;;;;;35.08;20.70;;;22.10;49.40;;;;;;5095742;28;20101;-43
2021/05/10 09:10:33;;;;;;;34.33;19.95;;;22.10;49.40;;;;;;5098174;28;20504;-43
2021/05/10 09:12:59;;;;;;;31.83;17.95;;;22.10;49.40;;;;;;5099705;28;20048;-42
2021/05/10 09:15:32;;;;;;;35.72;20.15;;;22.10;49.40;;;;;;5098323;28;20052;-41
2021/05/10 09:18:02;;;;;;;39.83;19.77;;;22.10;49.40;;;;;;5098825;28;20410;-46
2021/05/10 09:20:35;;;;;;;33.17;18.95;;;22.10;49.40;;;;;;5102058;28;20495;-42
2021/05/10 09:23:11;;;;;;;41.55;19.23;;;22.10;49.30;;;;;;5102344;28;20075;-42
2021/05/10 09:25:43;;;;;;;34.13;19.30;;;22.10;49.40;;;;;;5102512;28;20043;-42
2021/05/10 09:28:23;;;;;;;32.35;18.48;;;22.10;49.50;;;;;;5103377;28;20468;-40
2021/05/10 09:30:51;;;;;;;33.42;18.80;;;22.10;49.60;;;;;;5101733;28;20036;-42
2021/05/10 09:33:28;;;;;;;32.00;17.77;;;22.10;49.60;;;;;;5102728;28;20047;-42
2021/05/10 09:35:58;;;;;;;32.28;18.00;;;22.20;49.80;;;;;;5103922;28;20044;-44
2021/05/10 09:38:26;;;;;;;28.13;17.10;;;22.10;49.70;;;;;;5101391;28;20046;-43
2021/05/10 09:41:01;;;;;;;27.52;16.90;;;22.10;49.90;;;;;;5103792;28;20067;-41
2021/05/10 09:43:38;;;;;;;27.88;16.20;;;22.10;50.10;;;;;;5103703;28;20051;-43
2021/05/10 09:46:07;;;;;;;30.77;16.58;;;22.20;50.00;;;;;;5101301;28;20052;-40
2021/05/10 09:48:37;;;;;;;28.70;16.67;;;22.20;50.00;;;;;;5102076;28;20130;-42
2021/05/10 09:51:08;;;;;;;27.55;15.75;;;22.20;50.80;;;;;;5101021;28;20055;-41
2021/05/10 09:53:40;;;;;;;29.70;16.77;;;22.20;50.20;;;;;;5101263;28;20044;-41
2021/05/10 09:56:11;;;;;;;26.83;16.08;;;22.20;50.20;;;;;;5103874;28;20063;-42
2021/05/10 09:58:41;;;;;;;31.20;15.65;;;22.20;50.30;;;;;;5102219;28;20047;-39
2021/05/10 10:01:12;;;;;;;25.87;14.70;;;22.20;50.40;;;;;;5101206;28;20424;-43
2021/05/10 10:03:44;;;;;;;24.98;15.85;;;22.20;50.40;;;;;;5104169;28;20058;-43
2021/05/10 10:06:15;;;;;;;24.25;15.10;;;22.20;50.40;;;;;;5102237;28;20048;-48
2021/05/10 10:08:44;;;;;;;24.20;13.93;;;22.20;50.40;;;;;;5102725;28;20107;-45
2021/05/10 10:11:14;;;;;;;25.75;14.77;;;22.20;50.40;;;;;;5103457;28;20116;-41
2021/05/10 10:13:40;;;;;;;25.05;15.00;;;22.20;50.30;;;;;;5101646;28;20039;-42
2021/05/10 10:16:08;;;;;;;29.20;16.27;;;22.20;50.30;;;;;;5103131;28;20040;-45
2021/05/10 10:18:38;;;;;;;24.85;14.68;;;22.20;50.30;;;;;;5103327;28;20515;-41
2021/05/10 10:21:10;;;;;;;21.63;13.75;;;22.20;50.20;;;;;;5101999;28;20066;-40
2021/05/10 10:23:37;;;;;;;24.77;14.30;;;22.20;50.20;;;;;;5103035;28;20078;-44
2021/05/10 10:26:14;;;;;;;24.65;14.65;;;22.20;50.20;;;;;;5100407;28;20047;-44
2021/05/10 10:28:43;;;;;;;23.80;13.63;;;22.20;50.10;;;;;;5099888;28;20047;-43
2021/05/10 10:31:25;;;;;;;25.70;14.02;;;22.20;50.10;;;;;;5102025;28;20044;-44
2021/05/10 10:34:01;;;;;;;20.33;13.27;;;22.20;50.00;;;;;;5100986;28;20040;-42
2021/05/10 10:36:31;;;;;;;22.42;13.95;;;22.20;50.00;;;;;;5101657;28;20039;-44
2021/05/10 10:39:16;;;;;;;21.27;13.40;;;22.20;49.90;;;;;;5101591;28;20082;-43
2021/05/10 10:42:06;;;;;;;24.98;12.75;;;22.10;49.80;;;;;;5101853;28;20099;-41
2021/05/10 10:44:34;;;;;;;26.95;13.77;;;22.20;49.90;;;;;;5099865;28;20096;-45
2021/05/10 10:47:02;;;;;;;26.60;13.82;;;22.20;49.90;;;;;;5102338;28;20056;-43
2021/05/10 10:49:40;;;;;;;25.35;13.65;;;22.10;49.70;;;;;;5100715;28;20054;-41
2021/05/10 10:52:23;;;;;;;22.80;13.25;;;22.10;49.70;;;;;;5100830;28;20112;-41
2021/05/10 10:55:19;;;;;;;28.13;13.32;;;22.20;49.70;;;;;;5103247;28;20052;-41
2021/05/10 10:57:46;;;;;;;26.15;13.57;;;22.10;49.60;;;;;;5101214;28;20131;-44
2021/05/10 11:00:16;;;;;;;20.73;12.48;;;22.10;49.60;;;;;;5100152;28;20092;-42
2021/05/10 11:02:54;;;;;;;21.30;12.90;;;22.10;49.60;;;;;;5103116;28;20043;-41
2021/05/10 11:05:23;;;;;;;21.40;11.85;;;22.20;49.70;;;;;;5101212;28;20051;-41
2021/05/10 11:08:18;;;;;;;20.75;12.07;;;22.10;49.50;;;;;;5100936;28;20047;-41
2021/05/10 11:10:54;;;;;;;19.85;13.05;;;22.20;49.70;;;;;;5101790;28;20453;-41
2021/05/10 11:13:29;;;;;;;20.13;13.07;;;22.10;49.50;;;;;;5099857;28;20914;-41
2021/05/10 11:15:58;;;;;;;20.35;13.20;;;22.10;49.50;;;;;;5099587;28;20055;-41
2021/05/10 11:18:38;;;;;;;21.00;12.20;;;22.10;49.50;;;;;;5103410;28;20066;-41
2021/05/10 11:21:29;;;;;;;20.85;11.77;;;22.10;49.50;;;;;;5100220;28;20056;-40
2021/05/10 11:24:01;;;;;;;20.90;12.52;;;22.10;49.50;;;;;;5090122;28;20427;-41
2021/05/10 11:26:55;;;;;;;19.35;12.13;;;22.10;49.50;;;;;;5102666;28;20445;-41
2021/05/10 11:29:25;;;;;;;21.85;11.77;;;22.10;49.50;;;;;;5101635;28;20499;-40
2021/05/10 11:32:18;;;;;;;24.27;13.35;;;22.10;49.50;;;;;;5099345;28;20044;-41
2021/05/10 11:34:46;;;;;;;23.48;11.70;;;22.10;49.50;;;;;;5100528;28;20499;-41
2021/05/10 11:37:15;;;;;;;20.08;12.27;;;22.10;49.40;;;;;;5101829;28;20048;-41
2021/05/10 11:39:42;;;;;;;20.85;12.07;;;22.10;49.40;;;;;;5100273;28;20048;-43
2021/05/10 11:42:10;;;;;;;25.45;12.45;;;22.10;49.60;;;;;;5099319;28;20070;-41
2021/05/10 11:44:38;;;;;;;18.92;10.90;;;22.10;49.50;;;;;;5101265;28;20052;-41
2021/05/10 11:47:17;;;;;;;18.17;11.88;;;22.10;49.50;;;;;;5099850;28;20416;-41
2021/05/10 11:49:51;;;;;;;18.13;12.23;;;22.10;49.40;;;;;;5102139;28;20051;-42
2021/05/10 11:52:20;;;;;;;19.98;10.82;;;22.10;49.40;;;;;;5099596;28;20461;-41
2021/05/10 11:54:49;;;;;;;22.70;12.07;;;22.10;49.50;;;;;;5096992;28;20115;-41
2021/05/10 11:57:24;;;;;;;20.27;11.77;;;22.10;49.50;;;;;;5102192;28;20050;-41
2021/05/10 11:59:55;;;;;;;20.98;11.80;;;22.10;49.40;;;;;;5099479;28;20048;-40
2021/05/10 12:02:27;;;;;;;18.25;11.60;;;22.10;49.40;;;;;;5098742;28;20051;-40
2021/05/10 12:05:03;;;;;;;19.88;11.55;;;22.10;49.40;;;;;;5101716;28;20040;-40
2021/05/10 12:07:32;;;;;;;17.38;9.77;;;22.10;49.40;;;;;;5099906;28;20075;-40
2021/05/10 12:10:03;;;;;;;18.88;10.93;;;22.10;49.60;;;;;;5097974;28;20067;-40
2021/05/10 12:12:35;;;;;;;17.25;10.77;;;22.10;49.40;;;;;;5101432;28;20047;-40
2021/05/10 12:15:23;;;;;;;17.85;10.90;;;22.10;49.40;;;;;;5099427;28;20063;-40
2021/05/10 12:17:52;;;;;;;18.75;10.80;;;22.10;49.40;;;;;;5099264;28;20036;-40
2021/05/10 12:20:24;;;;;;;17.77;11.35;;;22.10;49.40;;;;;;5101097;28;21129;-42
2021/05/10 12:22:56;;;;;;;16.70;10.48;;;22.10;49.40;;;;;;5099144;28;20116;-40
2021/05/10 12:25:30;;;;;;;16.23;10.30;;;22.10;49.40;;;;;;5096940;28;20483;-41
2021/05/10 12:28:02;;;;;;;19.30;10.80;;;22.10;49.40;;;;;;5100752;28;20059;-41
2021/05/10 12:30:33;;;;;;;21.02;11.23;;;22.10;49.40;;;;;;5098662;28;20067;-41
2021/05/10 12:33:07;;;;;;;20.73;10.85;;;22.10;49.40;;;;;;5100091;28;20052;-40
2021/05/10 12:35:38;;;;;;;16.98;10.63;;;22.10;49.40;;;;;;5101274;28;20052;-40
2021/05/10 12:38:05;;;;;;;15.40;10.00;;;22.10;49.40;;;;;;5098530;28;20040;-41
2021/05/10 12:40:44;;;;;;;17.60;10.45;;;22.10;49.40;;;;;;5099831;28;20083;-40
2021/05/10 12:43:16;;;;;;;17.30;9.93;;;22.10;49.30;;;;;;5101767;28;20096;-41
2021/05/10 12:46:02;;;;;;;16.67;10.40;;;22.10;49.30;;;;;;5099834;28;20055;-41